Aviation Digital Data Service (ADDS)

Output produced by METARs form (1902 UTC 18 June 2019)
found at http://www.aviationweather.gov/metar/data/
 
SCFA 181900Z 22011KT CAVOK 15/09 Q1012 NOSIG
TAF SCFA 181630Z 1818/1918 21008KT 9999 FEW015 TX17/1818Z TN11/1910Z 
     BECMG 1904/1906 02004KT OVC008 
     BECMG 1912/1914 36010KT BKN012 
     BECMG 1917/1918 25006KT FEW015
       
SCAR 181900Z 21009KT 180V250 CAVOK 17/12 Q1011
TAF COR SCAR 181755Z 1818/1918 21010KT 9999 FEW025 TX19/1819Z TN16/ 1908Z 
     BECMG 1823/1901 BKN025 
     BECMG 1902/1904 16004KT OVC020 
     BECMG 1916/1918 22008KT SCT020
       
SCBA 181900Z 32021KT 9999 FEW040 SCT120 BKN200 07/01 Q1015
TAF SCBA 181656Z 1818/1918 32024KT CAVOK TX08/1818Z TN01/1906Z 
     BECMG 1904/1906 31020KT BKN015 BKN035 
     BECMG 1908/1910 32010KT
       
SCCF 181900Z 25016KT CAVOK 23/M10 Q1025
TAF SCCF 181630Z 1818/1918 27012KT CAVOK TX23/1819Z TN04/1909Z 
     BECMG 1823/1901 21005KT 
     BECMG 1902/1904 10020KT 
     BECMG 1917/1918 26015KT
       
SCTN 181900Z 35010KT 9999 FEW012 BKN025 10/08 Q1022
SCCC 181900Z 29015KT 9999 FEW040 BKN130 BKN200 11/M01 Q1012
SCCH 181900Z 18004KT 9999 SCT015 15/06 Q1025
SCIE 181900Z 12007KT 9999 FEW015 12/08 Q1025
TAF SCIE 181610Z 1818/1918 18008KT 9999 FEW015 TX15/1818Z TN04/1911Z 
     BECMG 1818/1820 CAVOK 
     BECMG 1901/1903 15004KT 
     TEMPO 1906/1914 13004KT 4000 BR NSC 
     BECMG 1915/1917 18008KT
       
SCAT 181900Z 23010KT CAVOK 21/02 Q1015
TAF SCAT 181630Z 1818/1918 20010KT CAVOK TX22/1818Z TN08/1910Z 
     BECMG 1900/1902 12004KT 
     BECMG 1908/1909 32004KT 8000 OVC010 
     BECMG 1910/1912 4000 BR OVC005 
     BECMG 1914/1916 36012KT 8000 OVC015
       
SCCY 181900Z 23008KT 160V310 9999 FEW040 SCT080 BKN200 09/03 Q1017
TAF SCCY 181052Z 1812/1900 01005KT CAVOK TN00/1812Z TX06/1818Z 
     BECMG 1813/1815 SCT035 
     BECMG 1822/1900 SCT015 BKN030
       
SCDA 181900Z 31006KT 9999 BKN021 17/11 Q1012
TAF COR SCDA 181759Z 1818/1918 30008KT 9999 BKN022 TX17/1819Z TN15/ 1910Z 
     BECMG 1900/1902 20010KT OVC020 
     BECMG 1902/1904 01004KT 
     BECMG 1914/1916 31008KT BKN030
       
SCSE 181900Z 29007KT CAVOK 17/04 Q1016
TAF SCSE 181609Z 1818/1918 28012KT CAVOK TX18/1818Z TN08/1911Z 
     BECMG 1901/1903 30004KT 
     TEMPO 1906/1915 12004KT SCT010 
     BECMG 1916/1918 28010KT
       
SCGE 181900Z 01003KT 9999 SCT020 12/07 Q1026
SCJO 181900Z 03003KT 9999 OVC045 11/08 Q1024
TAF SCJO 181106Z 1812/1900 02005KT 9999 BKN020 TN05/1812Z TX13/1819Z 
     BECMG 1816/1818 34006KT SCT020 OVC035 
     BECMG 1822/1824 01005KT BKN015 OVC025
       
SCFM 181900Z 29008KT CAVOK 07/04 Q1005
SCTE 181900Z 01005KT 9999 SCT035 OVC050 11/08 Q1023 NOSIG
TAF SCTE 181653Z 1818/1918 36007KT 9999 SCT030 OVC050 TX11/1818Z TN07/1904Z 
     TEMPO 1818/1819 8000 -SHRA BKN025 OVC035 
     BECMG 1821/1823 SCT030 BKN100 
     BECMG 1902/1906 BKN015 BKN035 
     BECMG 1906/1908 04007KT 
     TEMPO 1910/1918 BKN040
       
SCNT 181900Z 29015KT 9999 FEW040 10/02 Q1008
TAF SCNT 181056Z 1812/1900 VRB04KT 9999 FEW040 TN03/1812Z TX07/1818Z 
     BECMG 1817/1819 33007KT SCT030 
     TEMPO 1819/1823 9000 -SHRA FEW015 BKN025
       
SCGZ 181900Z 06003KT 9999 FEW045 SCT060 OVC080 05/04 Q1000
SCCI 181900Z 25010KT 9999 FEW030 SCT120 BKN200 07/04 Q1005 NOSIG
TAF COR SCCI 181755Z 1818/1918 28020G30KT 9999 SCT040 TN04/1912Z TX09/1818Z 
     PROB40 
     TEMPO 1821/1902 9000 FEW015 SCT025 
     BECMG 1905/1907 27025G35KT FEW040 
     BECMG 1912/1914 29015KT SCT042
       
SCRG 181900Z 20008KT CAVOK 14/03 Q1023
SCEL 181900Z VRB04KT CAVOK 14/03 Q1022 NOSIG
TAF SCEL 181610Z 1818/1918 18008KT CAVOK TX15/1818Z TN03/1911Z 
     BECMG 1901/1903 15004KT 8000 NSC 
     TEMPO 1906/1912 VRB02KT 4000 BR 
     BECMG 1916/1918 18008KT
       
SCTB 181900Z 34003KT CAVOK 15/M02 Q1022
SCVD 181900Z VRB03KT 9999 SCT006 BKN025 12/11 Q1025
SCVM 181900Z 12008KT CAVOK 19/07 Q1021